sensor_id;sensor_type;location;lat;lon;timestamp;P1;durP1;ratioP1;P2;durP2;ratioP2
40675;SDS011;26359;48.750;9.314;2024-03-02T00:00:51;24.02;;;21.42;;
40675;SDS011;26359;48.750;9.314;2024-03-02T00:03:17;29.75;;;26.88;;
40675;SDS011;26359;48.750;9.314;2024-03-02T00:05:43;33.67;;;30.58;;
40675;SDS011;26359;48.750;9.314;2024-03-02T00:08:13;25.75;;;22.73;;
40675;SDS011;26359;48.750;9.314;2024-03-02T00:10:49;29.45;;;21.67;;
40675;SDS011;26359;48.750;9.314;2024-03-02T00:13:15;22.25;;;19.55;;
40675;SDS011;26359;48.750;9.314;2024-03-02T00:18:10;22.10;;;19.02;;
40675;SDS011;26359;48.750;9.314;2024-03-02T00:20:37;21.02;;;18.42;;
40675;SDS011;26359;48.750;9.314;2024-03-02T00:23:03;25.17;;;21.73;;
40675;SDS011;26359;48.750;9.314;2024-03-02T00:28:23;24.90;;;21.58;;
40675;SDS011;26359;48.750;9.314;2024-03-02T00:33:22;24.63;;;20.73;;
40675;SDS011;26359;48.750;9.314;2024-03-02T00:35:49;24.02;;;19.60;;
40675;SDS011;26359;48.750;9.314;2024-03-02T00:38:15;23.23;;;19.75;;
40675;SDS011;26359;48.750;9.314;2024-03-02T00:40:43;23.50;;;19.38;;
40675;SDS011;26359;48.750;9.314;2024-03-02T00:46:03;24.42;;;21.83;;
40675;SDS011;26359;48.750;9.314;2024-03-02T00:48:29;26.00;;;20.92;;
40675;SDS011;26359;48.750;9.314;2024-03-02T00:50:56;26.50;;;23.30;;
40675;SDS011;26359;48.750;9.314;2024-03-02T00:53:23;29.15;;;26.05;;
40675;SDS011;26359;48.750;9.314;2024-03-02T00:55:51;26.83;;;22.90;;
40675;SDS011;26359;48.750;9.314;2024-03-02T00:58:16;25.35;;;20.20;;
40675;SDS011;26359;48.750;9.314;2024-03-02T01:00:42;23.33;;;20.05;;
40675;SDS011;26359;48.750;9.314;2024-03-02T01:03:07;26.50;;;21.00;;
40675;SDS011;26359;48.750;9.314;2024-03-02T01:05:33;27.92;;;25.02;;
40675;SDS011;26359;48.750;9.314;2024-03-02T01:07:59;29.17;;;26.17;;
40675;SDS011;26359;48.750;9.314;2024-03-02T01:10:25;32.78;;;29.33;;
40675;SDS011;26359;48.750;9.314;2024-03-02T01:12:51;30.95;;;27.67;;
40675;SDS011;26359;48.750;9.314;2024-03-02T01:15:16;27.75;;;24.75;;
40675;SDS011;26359;48.750;9.314;2024-03-02T01:17:42;30.38;;;27.25;;
40675;SDS011;26359;48.750;9.314;2024-03-02T01:20:08;32.70;;;29.45;;
40675;SDS011;26359;48.750;9.314;2024-03-02T01:22:34;36.53;;;33.13;;
40675;SDS011;26359;48.750;9.314;2024-03-02T01:25:00;34.25;;;30.67;;
40675;SDS011;26359;48.750;9.314;2024-03-02T01:27:26;32.50;;;29.30;;
40675;SDS011;26359;48.750;9.314;2024-03-02T01:29:52;34.40;;;31.10;;
40675;SDS011;26359;48.750;9.314;2024-03-02T01:32:17;34.13;;;30.80;;
40675;SDS011;26359;48.750;9.314;2024-03-02T01:34:43;29.48;;;26.50;;
40675;SDS011;26359;48.750;9.314;2024-03-02T01:37:08;33.53;;;30.17;;
40675;SDS011;26359;48.750;9.314;2024-03-02T01:39:35;35.28;;;31.88;;
40675;SDS011;26359;48.750;9.314;2024-03-02T01:42:00;38.20;;;34.55;;
40675;SDS011;26359;48.750;9.314;2024-03-02T01:44:26;38.13;;;34.40;;
40675;SDS011;26359;48.750;9.314;2024-03-02T01:46:52;34.90;;;31.48;;
40675;SDS011;26359;48.750;9.314;2024-03-02T01:49:17;37.35;;;33.92;;
40675;SDS011;26359;48.750;9.314;2024-03-02T01:51:43;36.10;;;32.60;;
40675;SDS011;26359;48.750;9.314;2024-03-02T01:54:09;37.42;;;33.63;;
40675;SDS011;26359;48.750;9.314;2024-03-02T01:56:35;40.92;;;36.85;;
40675;SDS011;26359;48.750;9.314;2024-03-02T01:59:01;41.00;;;37.30;;
40675;SDS011;26359;48.750;9.314;2024-03-02T02:01:26;37.20;;;33.83;;
40675;SDS011;26359;48.750;9.314;2024-03-02T02:03:52;39.28;;;35.63;;
40675;SDS011;26359;48.750;9.314;2024-03-02T02:06:17;40.80;;;37.00;;
40675;SDS011;26359;48.750;9.314;2024-03-02T02:08:43;37.10;;;33.53;;
40675;SDS011;26359;48.750;9.314;2024-03-02T02:11:09;36.90;;;33.35;;
40675;SDS011;26359;48.750;9.314;2024-03-02T02:13:34;38.40;;;34.83;;
40675;SDS011;26359;48.750;9.314;2024-03-02T02:16:06;41.33;;;37.50;;
40675;SDS011;26359;48.750;9.314;2024-03-02T02:18:32;36.03;;;32.67;;
40675;SDS011;26359;48.750;9.314;2024-03-02T02:20:58;46.00;;;42.25;;
40675;SDS011;26359;48.750;9.314;2024-03-02T02:23:24;37.58;;;33.95;;
40675;SDS011;26359;48.750;9.314;2024-03-02T02:25:49;46.15;;;42.08;;
40675;SDS011;26359;48.750;9.314;2024-03-02T02:28:15;44.95;;;41.25;;
40675;SDS011;26359;48.750;9.314;2024-03-02T02:30:41;51.70;;;47.60;;
40675;SDS011;26359;48.750;9.314;2024-03-02T02:33:07;51.38;;;47.00;;
40675;SDS011;26359;48.750;9.314;2024-03-02T02:35:33;49.90;;;45.80;;
40675;SDS011;26359;48.750;9.314;2024-03-02T02:37:58;40.15;;;36.45;;
40675;SDS011;26359;48.750;9.314;2024-03-02T02:40:24;28.73;;;25.75;;
40675;SDS011;26359;48.750;9.314;2024-03-02T02:42:50;29.45;;;26.05;;
40675;SDS011;26359;48.750;9.314;2024-03-02T02:45:17;31.70;;;28.40;;
40675;SDS011;26359;48.750;9.314;2024-03-02T02:47:42;27.48;;;24.60;;
40675;SDS011;26359;48.750;9.314;2024-03-02T02:50:09;28.00;;;23.30;;
40675;SDS011;26359;48.750;9.314;2024-03-02T02:52:36;31.42;;;28.23;;
40675;SDS011;26359;48.750;9.314;2024-03-02T02:55:04;29.85;;;26.75;;
40675;SDS011;26359;48.750;9.314;2024-03-02T02:57:34;36.63;;;32.95;;
40675;SDS011;26359;48.750;9.314;2024-03-02T03:00:11;32.75;;;29.45;;
40675;SDS011;26359;48.750;9.314;2024-03-02T03:02:41;28.63;;;25.52;;
40675;SDS011;26359;48.750;9.314;2024-03-02T03:05:08;30.27;;;26.58;;
40675;SDS011;26359;48.750;9.314;2024-03-02T03:07:35;31.00;;;25.55;;
40675;SDS011;26359;48.750;9.314;2024-03-02T03:10:01;29.70;;;25.15;;
40675;SDS011;26359;48.750;9.314;2024-03-02T03:12:28;28.80;;;25.65;;
40675;SDS011;26359;48.750;9.314;2024-03-02T03:14:54;26.98;;;23.90;;
40675;SDS011;26359;48.750;9.314;2024-03-02T03:17:20;28.63;;;25.65;;
40675;SDS011;26359;48.750;9.314;2024-03-02T03:19:46;31.60;;;28.20;;
40675;SDS011;26359;48.750;9.314;2024-03-02T03:22:12;33.50;;;29.73;;
40675;SDS011;26359;48.750;9.314;2024-03-02T03:24:38;34.53;;;30.95;;
40675;SDS011;26359;48.750;9.314;2024-03-02T03:27:03;29.05;;;25.90;;
40675;SDS011;26359;48.750;9.314;2024-03-02T03:29:29;35.83;;;32.28;;
40675;SDS011;26359;48.750;9.314;2024-03-02T03:31:55;38.70;;;34.95;;
40675;SDS011;26359;48.750;9.314;2024-03-02T03:34:20;47.28;;;42.88;;
40675;SDS011;26359;48.750;9.314;2024-03-02T03:36:46;33.53;;;28.15;;
40675;SDS011;26359;48.750;9.314;2024-03-02T03:39:11;32.03;;;28.52;;
40675;SDS011;26359;48.750;9.314;2024-03-02T03:41:37;30.23;;;25.88;;
40675;SDS011;26359;48.750;9.314;2024-03-02T03:44:02;27.00;;;20.63;;
40675;SDS011;26359;48.750;9.314;2024-03-02T03:46:28;25.45;;;20.08;;
40675;SDS011;26359;48.750;9.314;2024-03-02T03:48:54;26.55;;;20.98;;
40675;SDS011;26359;48.750;9.314;2024-03-02T03:51:21;26.70;;;20.02;;
40675;SDS011;26359;48.750;9.314;2024-03-02T03:53:47;30.75;;;24.50;;
40675;SDS011;26359;48.750;9.314;2024-03-02T03:56:13;28.80;;;22.30;;
40675;SDS011;26359;48.750;9.314;2024-03-02T03:58:39;29.10;;;22.80;;
40675;SDS011;26359;48.750;9.314;2024-03-02T04:01:04;29.77;;;21.38;;
40675;SDS011;26359;48.750;9.314;2024-03-02T04:03:30;29.98;;;20.20;;
40675;SDS011;26359;48.750;9.314;2024-03-02T04:05:55;29.98;;;24.45;;
40675;SDS011;26359;48.750;9.314;2024-03-02T04:08:21;31.63;;;24.75;;
40675;SDS011;26359;48.750;9.314;2024-03-02T04:10:47;35.90;;;27.35;;
40675;SDS011;26359;48.750;9.314;2024-03-02T04:13:12;48.78;;;44.33;;
40675;SDS011;26359;48.750;9.314;2024-03-02T04:15:38;35.10;;;29.08;;
40675;SDS011;26359;48.750;9.314;2024-03-02T04:18:03;41.30;;;36.50;;
40675;SDS011;26359;48.750;9.314;2024-03-02T04:20:29;52.58;;;47.78;;
40675;SDS011;26359;48.750;9.314;2024-03-02T04:22:55;34.38;;;25.45;;
40675;SDS011;26359;48.750;9.314;2024-03-02T04:25:20;32.45;;;26.92;;
40675;SDS011;26359;48.750;9.314;2024-03-02T04:27:46;30.83;;;22.17;;
40675;SDS011;26359;48.750;9.314;2024-03-02T04:30:12;31.25;;;23.00;;
40675;SDS011;26359;48.750;9.314;2024-03-02T04:32:38;34.53;;;30.80;;
40675;SDS011;26359;48.750;9.314;2024-03-02T04:35:04;57.30;;;52.22;;
40675;SDS011;26359;48.750;9.314;2024-03-02T04:37:30;35.60;;;32.08;;
40675;SDS011;26359;48.750;9.314;2024-03-02T04:39:56;100.68;;;93.53;;
40675;SDS011;26359;48.750;9.314;2024-03-02T04:42:22;58.53;;;53.58;;
40675;SDS011;26359;48.750;9.314;2024-03-02T04:44:48;51.83;;;47.05;;
40675;SDS011;26359;48.750;9.314;2024-03-02T04:47:13;76.28;;;70.43;;
40675;SDS011;26359;48.750;9.314;2024-03-02T04:49:39;70.55;;;65.03;;
40675;SDS011;26359;48.750;9.314;2024-03-02T04:52:04;40.08;;;35.72;;
40675;SDS011;26359;48.750;9.314;2024-03-02T04:54:30;37.95;;;32.45;;
40675;SDS011;26359;48.750;9.314;2024-03-02T04:56:55;37.85;;;33.22;;
40675;SDS011;26359;48.750;9.314;2024-03-02T04:59:21;35.75;;;31.80;;
40675;SDS011;26359;48.750;9.314;2024-03-02T05:01:47;40.78;;;34.70;;
40675;SDS011;26359;48.750;9.314;2024-03-02T05:04:12;37.95;;;34.03;;
40675;SDS011;26359;48.750;9.314;2024-03-02T05:06:38;35.72;;;30.15;;
40675;SDS011;26359;48.750;9.314;2024-03-02T05:09:05;43.83;;;36.70;;
40675;SDS011;26359;48.750;9.314;2024-03-02T05:11:31;34.55;;;27.80;;
40675;SDS011;26359;48.750;9.314;2024-03-02T05:14:03;34.13;;;26.00;;
40675;SDS011;26359;48.750;9.314;2024-03-02T05:16:28;36.42;;;30.45;;
40675;SDS011;26359;48.750;9.314;2024-03-02T05:18:54;32.72;;;24.88;;
40675;SDS011;26359;48.750;9.314;2024-03-02T05:21:20;31.73;;;22.45;;
40675;SDS011;26359;48.750;9.314;2024-03-02T05:23:45;33.45;;;23.67;;
40675;SDS011;26359;48.750;9.314;2024-03-02T05:26:11;33.13;;;27.50;;
40675;SDS011;26359;48.750;9.314;2024-03-02T05:28:38;39.40;;;34.83;;
40675;SDS011;26359;48.750;9.314;2024-03-02T05:31:04;34.45;;;28.00;;
40675;SDS011;26359;48.750;9.314;2024-03-02T05:33:30;31.15;;;23.65;;
40675;SDS011;26359;48.750;9.314;2024-03-02T05:35:58;33.03;;;25.45;;
40675;SDS011;26359;48.750;9.314;2024-03-02T05:38:23;29.95;;;23.10;;
40675;SDS011;26359;48.750;9.314;2024-03-02T05:40:49;29.50;;;20.80;;
40675;SDS011;26359;48.750;9.314;2024-03-02T05:43:14;31.45;;;22.30;;
40675;SDS011;26359;48.750;9.314;2024-03-02T05:45:40;28.55;;;21.48;;
40675;SDS011;26359;48.750;9.314;2024-03-02T05:48:06;31.27;;;21.33;;
40675;SDS011;26359;48.750;9.314;2024-03-02T05:50:32;29.30;;;21.75;;
40675;SDS011;26359;48.750;9.314;2024-03-02T05:52:58;28.92;;;21.52;;
40675;SDS011;26359;48.750;9.314;2024-03-02T05:55:24;30.98;;;21.45;;
40675;SDS011;26359;48.750;9.314;2024-03-02T05:57:49;27.98;;;21.13;;
40675;SDS011;26359;48.750;9.314;2024-03-02T06:00:34;31.58;;;23.58;;
40675;SDS011;26359;48.750;9.314;2024-03-02T06:02:59;29.80;;;23.33;;
40675;SDS011;26359;48.750;9.314;2024-03-02T06:05:25;30.00;;;22.05;;
40675;SDS011;26359;48.750;9.314;2024-03-02T06:07:50;29.13;;;21.67;;
40675;SDS011;26359;48.750;9.314;2024-03-02T06:10:16;31.13;;;21.75;;
40675;SDS011;26359;48.750;9.314;2024-03-02T06:12:42;29.50;;;21.05;;
40675;SDS011;26359;48.750;9.314;2024-03-02T06:15:08;33.40;;;22.48;;
40675;SDS011;26359;48.750;9.314;2024-03-02T06:17:37;29.83;;;21.90;;
40675;SDS011;26359;48.750;9.314;2024-03-02T06:20:03;32.10;;;22.60;;
40675;SDS011;26359;48.750;9.314;2024-03-02T06:22:29;34.50;;;26.83;;
40675;SDS011;26359;48.750;9.314;2024-03-02T06:24:54;32.78;;;22.50;;
40675;SDS011;26359;48.750;9.314;2024-03-02T06:27:20;31.38;;;24.95;;
40675;SDS011;26359;48.750;9.314;2024-03-02T06:29:45;34.40;;;22.65;;
40675;SDS011;26359;48.750;9.314;2024-03-02T06:32:11;29.88;;;26.27;;
40675;SDS011;26359;48.750;9.314;2024-03-02T06:34:36;31.17;;;22.23;;
40675;SDS011;26359;48.750;9.314;2024-03-02T06:37:02;31.80;;;22.05;;
40675;SDS011;26359;48.750;9.314;2024-03-02T06:39:28;29.58;;;20.95;;
40675;SDS011;26359;48.750;9.314;2024-03-02T06:41:54;30.25;;;24.05;;
40675;SDS011;26359;48.750;9.314;2024-03-02T06:44:19;33.50;;;22.55;;
40675;SDS011;26359;48.750;9.314;2024-03-02T06:46:46;33.00;;;24.55;;
40675;SDS011;26359;48.750;9.314;2024-03-02T06:49:11;32.67;;;24.83;;
40675;SDS011;26359;48.750;9.314;2024-03-02T06:51:37;29.23;;;21.13;;
40675;SDS011;26359;48.750;9.314;2024-03-02T06:54:02;32.30;;;22.85;;
40675;SDS011;26359;48.750;9.314;2024-03-02T06:56:28;32.38;;;25.58;;
40675;SDS011;26359;48.750;9.314;2024-03-02T06:58:53;33.85;;;28.98;;
40675;SDS011;26359;48.750;9.314;2024-03-02T07:01:19;32.70;;;26.65;;
40675;SDS011;26359;48.750;9.314;2024-03-02T07:03:47;33.85;;;26.95;;
40675;SDS011;26359;48.750;9.314;2024-03-02T07:06:13;34.83;;;26.27;;
40675;SDS011;26359;48.750;9.314;2024-03-02T07:08:39;31.98;;;23.70;;
40675;SDS011;26359;48.750;9.314;2024-03-02T07:11:04;37.30;;;25.40;;
40675;SDS011;26359;48.750;9.314;2024-03-02T07:13:30;32.60;;;24.20;;
40675;SDS011;26359;48.750;9.314;2024-03-02T07:15:55;33.83;;;24.60;;
40675;SDS011;26359;48.750;9.314;2024-03-02T07:18:35;37.78;;;30.17;;
40675;SDS011;26359;48.750;9.314;2024-03-02T07:21:16;49.22;;;41.10;;
40675;SDS011;26359;48.750;9.314;2024-03-02T07:23:41;62.28;;;43.20;;
40675;SDS011;26359;48.750;9.314;2024-03-02T07:26:08;55.17;;;40.63;;
40675;SDS011;26359;48.750;9.314;2024-03-02T07:28:33;52.55;;;42.03;;
40675;SDS011;26359;48.750;9.314;2024-03-02T07:33:25;42.22;;;37.78;;
40675;SDS011;26359;48.750;9.314;2024-03-02T07:35:50;35.88;;;32.13;;
40675;SDS011;26359;48.750;9.314;2024-03-02T07:38:16;33.67;;;30.05;;
40675;SDS011;26359;48.750;9.314;2024-03-02T07:40:42;38.17;;;34.22;;
40675;SDS011;26359;48.750;9.314;2024-03-02T07:43:08;36.60;;;32.35;;
40675;SDS011;26359;48.750;9.314;2024-03-02T07:45:33;38.97;;;35.08;;
40675;SDS011;26359;48.750;9.314;2024-03-02T07:48:01;44.47;;;39.97;;
40675;SDS011;26359;48.750;9.314;2024-03-02T07:50:28;55.05;;;50.35;;
40675;SDS011;26359;48.750;9.314;2024-03-02T07:52:55;32.17;;;28.70;;
40675;SDS011;26359;48.750;9.314;2024-03-02T07:55:20;30.23;;;23.13;;
40675;SDS011;26359;48.750;9.314;2024-03-02T07:57:46;48.85;;;23.08;;
40675;SDS011;26359;48.750;9.314;2024-03-02T08:00:12;29.10;;;24.48;;
40675;SDS011;26359;48.750;9.314;2024-03-02T08:02:37;26.10;;;20.23;;
40675;SDS011;26359;48.750;9.314;2024-03-02T08:05:03;24.45;;;19.80;;
40675;SDS011;26359;48.750;9.314;2024-03-02T08:07:29;24.58;;;21.55;;
40675;SDS011;26359;48.750;9.314;2024-03-02T08:09:54;28.50;;;25.50;;
40675;SDS011;26359;48.750;9.314;2024-03-02T08:12:20;36.15;;;32.85;;
40675;SDS011;26359;48.750;9.314;2024-03-02T08:14:48;49.08;;;45.08;;
40675;SDS011;26359;48.750;9.314;2024-03-02T08:17:14;53.30;;;49.13;;
40675;SDS011;26359;48.750;9.314;2024-03-02T08:19:45;61.70;;;57.47;;
40675;SDS011;26359;48.750;9.314;2024-03-02T08:22:13;42.78;;;39.13;;
40675;SDS011;26359;48.750;9.314;2024-03-02T08:24:39;37.72;;;34.25;;
40675;SDS011;26359;48.750;9.314;2024-03-02T08:27:05;38.10;;;34.67;;
40675;SDS011;26359;48.750;9.314;2024-03-02T08:29:31;33.35;;;30.27;;
40675;SDS011;26359;48.750;9.314;2024-03-02T08:31:56;45.60;;;41.97;;
40675;SDS011;26359;48.750;9.314;2024-03-02T08:34:22;33.15;;;30.02;;
40675;SDS011;26359;48.750;9.314;2024-03-02T08:36:47;26.52;;;23.75;;
40675;SDS011;26359;48.750;9.314;2024-03-02T08:39:13;26.60;;;23.52;;
40675;SDS011;26359;48.750;9.314;2024-03-02T08:41:49;24.17;;;21.58;;
40675;SDS011;26359;48.750;9.314;2024-03-02T08:44:15;20.60;;;16.93;;
40675;SDS011;26359;48.750;9.314;2024-03-02T08:46:41;20.88;;;18.23;;
40675;SDS011;26359;48.750;9.314;2024-03-02T08:49:07;26.25;;;21.73;;
40675;SDS011;26359;48.750;9.314;2024-03-02T08:51:33;28.85;;;25.80;;
40675;SDS011;26359;48.750;9.314;2024-03-02T08:53:58;31.58;;;28.15;;
40675;SDS011;26359;48.750;9.314;2024-03-02T08:56:24;32.80;;;29.40;;
40675;SDS011;26359;48.750;9.314;2024-03-02T08:58:50;35.95;;;32.35;;
40675;SDS011;26359;48.750;9.314;2024-03-02T09:01:16;36.35;;;32.75;;
40675;SDS011;26359;48.750;9.314;2024-03-02T09:03:43;38.42;;;34.83;;
40675;SDS011;26359;48.750;9.314;2024-03-02T09:06:12;39.50;;;28.55;;
40675;SDS011;26359;48.750;9.314;2024-03-02T09:08:38;39.97;;;35.25;;
40675;SDS011;26359;48.750;9.314;2024-03-02T09:11:04;26.45;;;23.40;;
40675;SDS011;26359;48.750;9.314;2024-03-02T09:13:31;27.88;;;24.13;;
40675;SDS011;26359;48.750;9.314;2024-03-02T09:15:57;28.10;;;24.88;;
40675;SDS011;26359;48.750;9.314;2024-03-02T09:18:23;27.58;;;24.77;;
40675;SDS011;26359;48.750;9.314;2024-03-02T09:20:49;24.55;;;21.60;;
40675;SDS011;26359;48.750;9.314;2024-03-02T09:23:14;24.10;;;17.77;;
40675;SDS011;26359;48.750;9.314;2024-03-02T09:25:40;24.38;;;21.25;;
40675;SDS011;26359;48.750;9.314;2024-03-02T09:28:05;27.17;;;24.25;;
40675;SDS011;26359;48.750;9.314;2024-03-02T09:30:32;30.13;;;27.00;;
40675;SDS011;26359;48.750;9.314;2024-03-02T09:32:57;27.63;;;25.05;;
40675;SDS011;26359;48.750;9.314;2024-03-02T09:35:23;19.65;;;17.30;;
40675;SDS011;26359;48.750;9.314;2024-03-02T09:37:49;18.80;;;16.77;;
40675;SDS011;26359;48.750;9.314;2024-03-02T09:40:14;21.77;;;19.50;;
40675;SDS011;26359;48.750;9.314;2024-03-02T09:42:41;16.17;;;14.63;;
40675;SDS011;26359;48.750;9.314;2024-03-02T09:45:07;18.10;;;16.33;;
40675;SDS011;26359;48.750;9.314;2024-03-02T09:47:33;18.55;;;17.13;;
40675;SDS011;26359;48.750;9.314;2024-03-02T09:49:59;16.02;;;14.52;;
40675;SDS011;26359;48.750;9.314;2024-03-02T09:52:24;13.85;;;12.70;;
40675;SDS011;26359;48.750;9.314;2024-03-02T09:54:51;33.90;;;25.27;;
40675;SDS011;26359;48.750;9.314;2024-03-02T09:57:16;11.20;;;10.18;;
40675;SDS011;26359;48.750;9.314;2024-03-02T09:59:42;11.35;;;10.32;;
40675;SDS011;26359;48.750;9.314;2024-03-02T10:02:07;12.93;;;11.82;;
40675;SDS011;26359;48.750;9.314;2024-03-02T10:04:33;15.25;;;11.63;;
40675;SDS011;26359;48.750;9.314;2024-03-02T10:07:17;13.20;;;12.07;;
40675;SDS011;26359;48.750;9.314;2024-03-02T10:09:44;20.00;;;16.60;;
40675;SDS011;26359;48.750;9.314;2024-03-02T10:12:11;14.38;;;13.07;;
40675;SDS011;26359;48.750;9.314;2024-03-02T10:14:38;17.52;;;16.30;;
40675;SDS011;26359;48.750;9.314;2024-03-02T10:17:08;14.43;;;13.25;;
40675;SDS011;26359;48.750;9.314;2024-03-02T10:19:35;14.10;;;12.93;;
40675;SDS011;26359;48.750;9.314;2024-03-02T10:22:02;14.50;;;13.32;;
40675;SDS011;26359;48.750;9.314;2024-03-02T10:24:36;14.88;;;13.75;;
40675;SDS011;26359;48.750;9.314;2024-03-02T10:27:10;15.05;;;13.93;;
40675;SDS011;26359;48.750;9.314;2024-03-02T10:29:40;21.17;;;13.80;;
40675;SDS011;26359;48.750;9.314;2024-03-02T10:32:10;11.52;;;10.43;;
40675;SDS011;26359;48.750;9.314;2024-03-02T10:34:36;12.50;;;11.40;;
40675;SDS011;26359;48.750;9.314;2024-03-02T10:37:02;12.30;;;11.23;;
40675;SDS011;26359;48.750;9.314;2024-03-02T10:39:28;12.13;;;11.00;;
40675;SDS011;26359;48.750;9.314;2024-03-02T10:41:55;13.98;;;12.90;;
40675;SDS011;26359;48.750;9.314;2024-03-02T10:44:21;16.33;;;15.23;;
40675;SDS011;26359;48.750;9.314;2024-03-02T10:46:47;15.98;;;14.88;;
40675;SDS011;26359;48.750;9.314;2024-03-02T10:49:17;14.23;;;13.05;;
40675;SDS011;26359;48.750;9.314;2024-03-02T10:51:45;12.55;;;11.45;;
40675;SDS011;26359;48.750;9.314;2024-03-02T10:54:11;12.18;;;11.27;;
40675;SDS011;26359;48.750;9.314;2024-03-02T10:56:40;9.65;;;8.82;;
40675;SDS011;26359;48.750;9.314;2024-03-02T11:01:47;8.93;;;8.23;;
40675;SDS011;26359;48.750;9.314;2024-03-02T11:04:15;12.85;;;11.95;;
40675;SDS011;26359;48.750;9.314;2024-03-02T11:06:49;12.20;;;11.20;;
40675;SDS011;26359;48.750;9.314;2024-03-02T11:09:16;12.20;;;11.20;;
40675;SDS011;26359;48.750;9.314;2024-03-02T11:11:44;9.40;;;8.70;;
40675;SDS011;26359;48.750;9.314;2024-03-02T11:14:19;7.72;;;7.13;;
40675;SDS011;26359;48.750;9.314;2024-03-02T11:16:49;8.35;;;7.75;;
40675;SDS011;26359;48.750;9.314;2024-03-02T11:19:16;8.32;;;7.72;;
40675;SDS011;26359;48.750;9.314;2024-03-02T11:21:43;7.57;;;6.85;;
40675;SDS011;26359;48.750;9.314;2024-03-02T11:26:52;7.38;;;6.88;;
40675;SDS011;26359;48.750;9.314;2024-03-02T11:32:03;7.70;;;7.18;;
40675;SDS011;26359;48.750;9.314;2024-03-02T11:34:30;8.60;;;7.97;;
40675;SDS011;26359;48.750;9.314;2024-03-02T11:37:03;6.47;;;6.07;;
40675;SDS011;26359;48.750;9.314;2024-03-02T11:39:29;6.50;;;6.10;;
40675;SDS011;26359;48.750;9.314;2024-03-02T11:41:58;6.00;;;5.50;;
40675;SDS011;26359;48.750;9.314;2024-03-02T11:44:25;6.82;;;6.43;;
40675;SDS011;26359;48.750;9.314;2024-03-02T11:46:52;13.93;;;13.20;;
40675;SDS011;26359;48.750;9.314;2024-03-02T11:52:31;16.38;;;15.43;;
40675;SDS011;26359;48.750;9.314;2024-03-02T11:54:58;14.18;;;13.45;;
40675;SDS011;26359;48.750;9.314;2024-03-02T11:57:25;16.92;;;15.73;;
40675;SDS011;26359;48.750;9.314;2024-03-02T11:59:52;19.13;;;17.92;;
40675;SDS011;26359;48.750;9.314;2024-03-02T12:02:21;17.27;;;16.38;;
40675;SDS011;26359;48.750;9.314;2024-03-02T12:04:47;11.15;;;10.57;;
40675;SDS011;26359;48.750;9.314;2024-03-02T12:07:20;6.07;;;5.63;;
40675;SDS011;26359;48.750;9.314;2024-03-02T12:09:47;6.43;;;6.03;;
40675;SDS011;26359;48.750;9.314;2024-03-02T12:12:13;6.03;;;5.72;;
40675;SDS011;26359;48.750;9.314;2024-03-02T12:14:49;6.10;;;5.80;;
40675;SDS011;26359;48.750;9.314;2024-03-02T12:17:16;4.68;;;4.30;;
40675;SDS011;26359;48.750;9.314;2024-03-02T12:19:41;5.13;;;4.68;;
40675;SDS011;26359;48.750;9.314;2024-03-02T12:22:07;5.03;;;4.72;;
40675;SDS011;26359;48.750;9.314;2024-03-02T12:24:32;4.47;;;4.28;;
40675;SDS011;26359;48.750;9.314;2024-03-02T12:26:58;6.20;;;5.70;;
40675;SDS011;26359;48.750;9.314;2024-03-02T12:29:24;5.32;;;5.03;;
40675;SDS011;26359;48.750;9.314;2024-03-02T12:31:50;5.78;;;5.35;;
40675;SDS011;26359;48.750;9.314;2024-03-02T12:34:21;4.78;;;4.50;;
40675;SDS011;26359;48.750;9.314;2024-03-02T12:36:47;10.63;;;10.13;;
40675;SDS011;26359;48.750;9.314;2024-03-02T12:39:14;5.35;;;5.05;;
40675;SDS011;26359;48.750;9.314;2024-03-02T12:41:44;5.07;;;4.78;;
40675;SDS011;26359;48.750;9.314;2024-03-02T12:44:15;5.75;;;5.45;;
40675;SDS011;26359;48.750;9.314;2024-03-02T12:46:44;5.45;;;5.05;;
40675;SDS011;26359;48.750;9.314;2024-03-02T12:49:12;3.90;;;3.70;;
40675;SDS011;26359;48.750;9.314;2024-03-02T12:51:39;4.15;;;3.85;;
40675;SDS011;26359;48.750;9.314;2024-03-02T12:54:06;4.10;;;3.90;;
40675;SDS011;26359;48.750;9.314;2024-03-02T12:56:33;5.20;;;4.82;;
40675;SDS011;26359;48.750;9.314;2024-03-02T12:59:00;5.68;;;4.80;;
40675;SDS011;26359;48.750;9.314;2024-03-02T13:01:26;5.03;;;4.72;;
40675;SDS011;26359;48.750;9.314;2024-03-02T13:03:52;4.75;;;4.47;;
40675;SDS011;26359;48.750;9.314;2024-03-02T13:06:20;4.82;;;4.53;;
40675;SDS011;26359;48.750;9.314;2024-03-02T13:08:46;5.35;;;4.95;;
40675;SDS011;26359;48.750;9.314;2024-03-02T13:11:12;5.78;;;5.47;;
40675;SDS011;26359;48.750;9.314;2024-03-02T13:13:38;12.93;;;12.32;;
40675;SDS011;26359;48.750;9.314;2024-03-02T13:16:11;12.73;;;11.93;;
40675;SDS011;26359;48.750;9.314;2024-03-02T13:18:40;10.10;;;9.60;;
40675;SDS011;26359;48.750;9.314;2024-03-02T13:21:07;8.50;;;8.05;;
40675;SDS011;26359;48.750;9.314;2024-03-02T13:23:33;8.90;;;8.30;;
40675;SDS011;26359;48.750;9.314;2024-03-02T13:25:59;12.05;;;11.35;;
40675;SDS011;26359;48.750;9.314;2024-03-02T13:28:25;10.63;;;10.02;;
40675;SDS011;26359;48.750;9.314;2024-03-02T13:30:51;11.07;;;10.32;;
40675;SDS011;26359;48.750;9.314;2024-03-02T13:33:16;9.50;;;8.95;;
40675;SDS011;26359;48.750;9.314;2024-03-02T13:35:48;10.32;;;9.43;;
40675;SDS011;26359;48.750;9.314;2024-03-02T13:38:15;18.35;;;17.30;;
40675;SDS011;26359;48.750;9.314;2024-03-02T13:40:44;8.68;;;8.27;;
40675;SDS011;26359;48.750;9.314;2024-03-02T13:43:10;13.82;;;13.15;;
40675;SDS011;26359;48.750;9.314;2024-03-02T13:45:37;6.07;;;5.78;;
40675;SDS011;26359;48.750;9.314;2024-03-02T13:48:02;5.25;;;5.00;;
40675;SDS011;26359;48.750;9.314;2024-03-02T13:50:28;6.60;;;6.10;;
40675;SDS011;26359;48.750;9.314;2024-03-02T13:52:55;6.47;;;6.18;;
40675;SDS011;26359;48.750;9.314;2024-03-02T13:55:21;7.10;;;6.70;;
40675;SDS011;26359;48.750;9.314;2024-03-02T13:57:46;6.55;;;6.25;;
40675;SDS011;26359;48.750;9.314;2024-03-02T14:00:13;6.80;;;6.50;;
40675;SDS011;26359;48.750;9.314;2024-03-02T14:02:40;6.18;;;5.78;;
40675;SDS011;26359;48.750;9.314;2024-03-02T14:05:06;4.63;;;4.43;;
40675;SDS011;26359;48.750;9.314;2024-03-02T14:07:36;8.00;;;7.40;;
40675;SDS011;26359;48.750;9.314;2024-03-02T14:10:02;4.82;;;4.63;;
40675;SDS011;26359;48.750;9.314;2024-03-02T14:12:28;5.10;;;4.80;;
40675;SDS011;26359;48.750;9.314;2024-03-02T14:14:54;4.55;;;4.35;;
40675;SDS011;26359;48.750;9.314;2024-03-02T14:17:23;5.22;;;4.85;;
40675;SDS011;26359;48.750;9.314;2024-03-02T14:19:51;4.25;;;3.95;;
40675;SDS011;26359;48.750;9.314;2024-03-02T14:22:18;4.18;;;3.97;;
40675;SDS011;26359;48.750;9.314;2024-03-02T14:24:44;4.47;;;4.10;;
40675;SDS011;26359;48.750;9.314;2024-03-02T14:27:11;4.22;;;3.92;;
40675;SDS011;26359;48.750;9.314;2024-03-02T14:29:36;3.95;;;3.75;;
40675;SDS011;26359;48.750;9.314;2024-03-02T14:32:04;4.72;;;4.43;;
40675;SDS011;26359;48.750;9.314;2024-03-02T14:34:30;4.55;;;4.15;;
40675;SDS011;26359;48.750;9.314;2024-03-02T14:36:56;4.57;;;4.28;;
40675;SDS011;26359;48.750;9.314;2024-03-02T14:39:21;4.00;;;3.70;;
40675;SDS011;26359;48.750;9.314;2024-03-02T14:41:47;3.67;;;3.47;;
40675;SDS011;26359;48.750;9.314;2024-03-02T14:44:13;4.07;;;3.78;;
40675;SDS011;26359;48.750;9.314;2024-03-02T14:46:40;4.60;;;4.18;;